sensor_id;sensor_type;location;lat;lon;timestamp;P1;durP1;ratioP1;P2;durP2;ratioP2
10295;SDS011;5193;51.032;6.356;2024-01-15T00:01:55;22.90;;;9.60;;
10295;SDS011;5193;51.032;6.356;2024-01-15T00:04:21;26.57;;;12.90;;
10295;SDS011;5193;51.032;6.356;2024-01-15T00:06:46;25.20;;;11.77;;
10295;SDS011;5193;51.032;6.356;2024-01-15T00:09:12;15.93;;;6.57;;
10295;SDS011;5193;51.032;6.356;2024-01-15T00:11:38;25.00;;;11.50;;
10295;SDS011;5193;51.032;6.356;2024-01-15T00:14:04;32.93;;;13.60;;
10295;SDS011;5193;51.032;6.356;2024-01-15T00:16:30;27.47;;;11.80;;
10295;SDS011;5193;51.032;6.356;2024-01-15T00:18:56;27.20;;;12.93;;
10295;SDS011;5193;51.032;6.356;2024-01-15T00:21:22;26.90;;;12.23;;
10295;SDS011;5193;51.032;6.356;2024-01-15T00:23:49;28.20;;;12.13;;
10295;SDS011;5193;51.032;6.356;2024-01-15T00:26:14;29.23;;;11.93;;
10295;SDS011;5193;51.032;6.356;2024-01-15T00:28:41;37.20;;;13.67;;
10295;SDS011;5193;51.032;6.356;2024-01-15T00:31:07;34.23;;;15.37;;
10295;SDS011;5193;51.032;6.356;2024-01-15T00:33:35;28.97;;;13.10;;
10295;SDS011;5193;51.032;6.356;2024-01-15T00:36:01;38.83;;;15.70;;
10295;SDS011;5193;51.032;6.356;2024-01-15T00:38:28;32.97;;;15.03;;
10295;SDS011;5193;51.032;6.356;2024-01-15T00:40:54;26.03;;;12.57;;
10295;SDS011;5193;51.032;6.356;2024-01-15T00:43:20;30.53;;;14.03;;
10295;SDS011;5193;51.032;6.356;2024-01-15T00:45:46;28.13;;;11.63;;
10295;SDS011;5193;51.032;6.356;2024-01-15T00:48:13;34.40;;;13.47;;
10295;SDS011;5193;51.032;6.356;2024-01-15T00:50:38;30.33;;;12.77;;
10295;SDS011;5193;51.032;6.356;2024-01-15T00:53:04;21.80;;;9.17;;
10295;SDS011;5193;51.032;6.356;2024-01-15T00:55:30;21.37;;;8.90;;
10295;SDS011;5193;51.032;6.356;2024-01-15T00:57:57;22.67;;;11.60;;
10295;SDS011;5193;51.032;6.356;2024-01-15T01:00:22;37.07;;;14.47;;
10295;SDS011;5193;51.032;6.356;2024-01-15T01:02:48;29.40;;;13.90;;
10295;SDS011;5193;51.032;6.356;2024-01-15T01:05:14;23.23;;;11.40;;
10295;SDS011;5193;51.032;6.356;2024-01-15T01:07:41;26.30;;;12.03;;
10295;SDS011;5193;51.032;6.356;2024-01-15T01:10:07;26.67;;;11.37;;
10295;SDS011;5193;51.032;6.356;2024-01-15T01:12:36;13.60;;;5.67;;
10295;SDS011;5193;51.032;6.356;2024-01-15T01:15:05;20.60;;;10.30;;
10295;SDS011;5193;51.032;6.356;2024-01-15T01:17:33;19.13;;;8.87;;
10295;SDS011;5193;51.032;6.356;2024-01-15T01:20:01;26.90;;;11.60;;
10295;SDS011;5193;51.032;6.356;2024-01-15T01:22:29;30.17;;;12.37;;
10295;SDS011;5193;51.032;6.356;2024-01-15T01:24:55;27.90;;;11.77;;
10295;SDS011;5193;51.032;6.356;2024-01-15T01:27:21;24.67;;;11.70;;
10295;SDS011;5193;51.032;6.356;2024-01-15T01:29:47;29.13;;;12.23;;
10295;SDS011;5193;51.032;6.356;2024-01-15T01:32:12;17.00;;;8.50;;
10295;SDS011;5193;51.032;6.356;2024-01-15T01:34:44;30.70;;;12.63;;
10295;SDS011;5193;51.032;6.356;2024-01-15T01:37:10;22.37;;;9.67;;
10295;SDS011;5193;51.032;6.356;2024-01-15T01:39:41;31.07;;;14.17;;
10295;SDS011;5193;51.032;6.356;2024-01-15T01:42:07;30.83;;;14.00;;
10295;SDS011;5193;51.032;6.356;2024-01-15T01:44:33;23.90;;;11.17;;
10295;SDS011;5193;51.032;6.356;2024-01-15T01:46:59;24.07;;;10.37;;
10295;SDS011;5193;51.032;6.356;2024-01-15T01:49:26;34.23;;;13.20;;
10295;SDS011;5193;51.032;6.356;2024-01-15T01:51:53;30.20;;;13.60;;
10295;SDS011;5193;51.032;6.356;2024-01-15T01:54:25;30.43;;;13.93;;
10295;SDS011;5193;51.032;6.356;2024-01-15T01:56:56;34.93;;;13.87;;
10295;SDS011;5193;51.032;6.356;2024-01-15T01:59:27;26.63;;;10.43;;
10295;SDS011;5193;51.032;6.356;2024-01-15T02:02:00;21.97;;;9.43;;
10295;SDS011;5193;51.032;6.356;2024-01-15T02:04:29;24.27;;;10.33;;
10295;SDS011;5193;51.032;6.356;2024-01-15T02:06:56;26.57;;;12.70;;
10295;SDS011;5193;51.032;6.356;2024-01-15T02:09:21;29.50;;;12.17;;
10295;SDS011;5193;51.032;6.356;2024-01-15T02:11:47;18.70;;;8.17;;
10295;SDS011;5193;51.032;6.356;2024-01-15T02:14:14;26.40;;;12.97;;
10295;SDS011;5193;51.032;6.356;2024-01-15T02:16:40;28.07;;;12.77;;
10295;SDS011;5193;51.032;6.356;2024-01-15T02:19:06;20.13;;;9.23;;
10295;SDS011;5193;51.032;6.356;2024-01-15T02:21:33;21.23;;;10.50;;
10295;SDS011;5193;51.032;6.356;2024-01-15T02:23:58;24.33;;;12.60;;
10295;SDS011;5193;51.032;6.356;2024-01-15T02:26:24;27.17;;;12.80;;
10295;SDS011;5193;51.032;6.356;2024-01-15T02:28:54;28.47;;;11.73;;
10295;SDS011;5193;51.032;6.356;2024-01-15T02:31:20;17.90;;;9.00;;
10295;SDS011;5193;51.032;6.356;2024-01-15T02:33:48;21.47;;;8.93;;
10295;SDS011;5193;51.032;6.356;2024-01-15T02:36:14;17.17;;;8.07;;
10295;SDS011;5193;51.032;6.356;2024-01-15T02:38:41;18.97;;;7.80;;
10295;SDS011;5193;51.032;6.356;2024-01-15T02:41:06;20.23;;;9.27;;
10295;SDS011;5193;51.032;6.356;2024-01-15T02:43:32;16.43;;;7.67;;
10295;SDS011;5193;51.032;6.356;2024-01-15T02:45:58;17.93;;;8.70;;
10295;SDS011;5193;51.032;6.356;2024-01-15T02:48:23;22.77;;;10.80;;
10295;SDS011;5193;51.032;6.356;2024-01-15T02:50:49;22.97;;;10.97;;
10295;SDS011;5193;51.032;6.356;2024-01-15T02:53:15;20.63;;;10.77;;
10295;SDS011;5193;51.032;6.356;2024-01-15T02:55:40;24.10;;;11.63;;
10295;SDS011;5193;51.032;6.356;2024-01-15T02:58:06;28.10;;;12.67;;
10295;SDS011;5193;51.032;6.356;2024-01-15T03:00:32;20.30;;;9.17;;
10295;SDS011;5193;51.032;6.356;2024-01-15T03:02:58;22.63;;;10.70;;
10295;SDS011;5193;51.032;6.356;2024-01-15T03:05:24;24.83;;;11.63;;
10295;SDS011;5193;51.032;6.356;2024-01-15T03:07:51;27.33;;;13.73;;
10295;SDS011;5193;51.032;6.356;2024-01-15T03:10:17;29.17;;;12.00;;
10295;SDS011;5193;51.032;6.356;2024-01-15T03:12:43;30.77;;;13.73;;
10295;SDS011;5193;51.032;6.356;2024-01-15T03:15:08;26.80;;;13.00;;
10295;SDS011;5193;51.032;6.356;2024-01-15T03:17:34;22.73;;;11.03;;
10295;SDS011;5193;51.032;6.356;2024-01-15T03:20:09;28.80;;;14.43;;
10295;SDS011;5193;51.032;6.356;2024-01-15T03:22:35;27.17;;;14.00;;
10295;SDS011;5193;51.032;6.356;2024-01-15T03:25:04;27.40;;;12.27;;
10295;SDS011;5193;51.032;6.356;2024-01-15T03:27:32;29.80;;;12.53;;
10295;SDS011;5193;51.032;6.356;2024-01-15T03:30:01;21.10;;;11.07;;
10295;SDS011;5193;51.032;6.356;2024-01-15T03:32:27;21.87;;;8.73;;
10295;SDS011;5193;51.032;6.356;2024-01-15T03:34:53;18.57;;;9.13;;
10295;SDS011;5193;51.032;6.356;2024-01-15T03:37:18;27.23;;;10.00;;
10295;SDS011;5193;51.032;6.356;2024-01-15T03:39:47;23.37;;;10.60;;
10295;SDS011;5193;51.032;6.356;2024-01-15T03:42:13;21.33;;;9.37;;
10295;SDS011;5193;51.032;6.356;2024-01-15T03:44:39;18.40;;;9.57;;
10295;SDS011;5193;51.032;6.356;2024-01-15T03:47:05;16.70;;;8.00;;
10295;SDS011;5193;51.032;6.356;2024-01-15T03:49:30;16.27;;;7.27;;
10295;SDS011;5193;51.032;6.356;2024-01-15T03:52:00;12.67;;;5.87;;
10295;SDS011;5193;51.032;6.356;2024-01-15T03:54:26;17.37;;;8.07;;
10295;SDS011;5193;51.032;6.356;2024-01-15T03:56:51;14.53;;;7.47;;
10295;SDS011;5193;51.032;6.356;2024-01-15T03:59:17;15.53;;;6.97;;
10295;SDS011;5193;51.032;6.356;2024-01-15T04:01:47;20.43;;;10.33;;
10295;SDS011;5193;51.032;6.356;2024-01-15T04:04:15;21.80;;;10.93;;
10295;SDS011;5193;51.032;6.356;2024-01-15T04:06:42;15.33;;;7.63;;
10295;SDS011;5193;51.032;6.356;2024-01-15T04:09:08;19.67;;;8.30;;
10295;SDS011;5193;51.032;6.356;2024-01-15T04:11:33;22.07;;;10.63;;
10295;SDS011;5193;51.032;6.356;2024-01-15T04:14:00;11.73;;;5.80;;
10295;SDS011;5193;51.032;6.356;2024-01-15T04:16:26;22.10;;;10.27;;
10295;SDS011;5193;51.032;6.356;2024-01-15T04:18:51;16.87;;;8.80;;
10295;SDS011;5193;51.032;6.356;2024-01-15T04:21:17;14.57;;;6.37;;
10295;SDS011;5193;51.032;6.356;2024-01-15T04:23:43;12.60;;;7.30;;
10295;SDS011;5193;51.032;6.356;2024-01-15T04:26:09;22.53;;;8.63;;
10295;SDS011;5193;51.032;6.356;2024-01-15T04:28:37;17.50;;;7.13;;
10295;SDS011;5193;51.032;6.356;2024-01-15T04:31:06;20.40;;;8.83;;
10295;SDS011;5193;51.032;6.356;2024-01-15T04:33:32;17.33;;;8.07;;
10295;SDS011;5193;51.032;6.356;2024-01-15T04:36:03;19.40;;;9.50;;
10295;SDS011;5193;51.032;6.356;2024-01-15T04:38:30;12.50;;;6.40;;
10295;SDS011;5193;51.032;6.356;2024-01-15T04:40:58;16.60;;;7.47;;
10295;SDS011;5193;51.032;6.356;2024-01-15T04:43:26;17.33;;;8.47;;
10295;SDS011;5193;51.032;6.356;2024-01-15T04:45:52;16.40;;;6.73;;
10295;SDS011;5193;51.032;6.356;2024-01-15T04:48:17;14.60;;;7.40;;
10295;SDS011;5193;51.032;6.356;2024-01-15T04:50:43;21.67;;;9.43;;
10295;SDS011;5193;51.032;6.356;2024-01-15T04:53:09;12.37;;;5.97;;
10295;SDS011;5193;51.032;6.356;2024-01-15T04:55:39;13.03;;;6.60;;
10295;SDS011;5193;51.032;6.356;2024-01-15T04:58:05;7.57;;;4.70;;
10295;SDS011;5193;51.032;6.356;2024-01-15T05:00:32;14.07;;;7.13;;
10295;SDS011;5193;51.032;6.356;2024-01-15T05:02:57;13.77;;;6.97;;
10295;SDS011;5193;51.032;6.356;2024-01-15T05:05:26;17.27;;;6.90;;
10295;SDS011;5193;51.032;6.356;2024-01-15T05:07:54;13.67;;;7.20;;
10295;SDS011;5193;51.032;6.356;2024-01-15T05:10:20;9.50;;;5.37;;
10295;SDS011;5193;51.032;6.356;2024-01-15T05:12:50;7.10;;;4.20;;
10295;SDS011;5193;51.032;6.356;2024-01-15T05:15:16;14.10;;;6.07;;
10295;SDS011;5193;51.032;6.356;2024-01-15T05:17:41;12.87;;;7.00;;
10295;SDS011;5193;51.032;6.356;2024-01-15T05:20:11;12.03;;;7.07;;
10295;SDS011;5193;51.032;6.356;2024-01-15T05:22:38;11.73;;;6.30;;
10295;SDS011;5193;51.032;6.356;2024-01-15T05:25:04;14.23;;;7.33;;
10295;SDS011;5193;51.032;6.356;2024-01-15T05:27:30;15.90;;;7.67;;
10295;SDS011;5193;51.032;6.356;2024-01-15T05:29:55;6.40;;;3.67;;
10295;SDS011;5193;51.032;6.356;2024-01-15T05:32:24;14.63;;;7.63;;
10295;SDS011;5193;51.032;6.356;2024-01-15T05:34:49;7.53;;;4.97;;
10295;SDS011;5193;51.032;6.356;2024-01-15T05:37:15;12.03;;;6.73;;
10295;SDS011;5193;51.032;6.356;2024-01-15T05:39:44;15.40;;;8.73;;
10295;SDS011;5193;51.032;6.356;2024-01-15T05:42:12;17.40;;;8.13;;
10295;SDS011;5193;51.032;6.356;2024-01-15T05:44:38;14.40;;;7.97;;
10295;SDS011;5193;51.032;6.356;2024-01-15T05:47:04;11.93;;;6.37;;
10295;SDS011;5193;51.032;6.356;2024-01-15T05:49:29;15.83;;;8.87;;
10295;SDS011;5193;51.032;6.356;2024-01-15T05:51:55;20.63;;;9.33;;
10295;SDS011;5193;51.032;6.356;2024-01-15T05:54:21;6.13;;;3.33;;
10295;SDS011;5193;51.032;6.356;2024-01-15T05:57:27;17.27;;;8.53;;
10295;SDS011;5193;51.032;6.356;2024-01-15T06:00:01;10.40;;;5.67;;
10295;SDS011;5193;51.032;6.356;2024-01-15T06:02:32;18.83;;;8.27;;
10295;SDS011;5193;51.032;6.356;2024-01-15T06:05:02;17.37;;;9.00;;
10295;SDS011;5193;51.032;6.356;2024-01-15T06:07:36;15.40;;;8.00;;
10295;SDS011;5193;51.032;6.356;2024-01-15T06:10:23;13.20;;;5.67;;
10295;SDS011;5193;51.032;6.356;2024-01-15T06:12:53;13.33;;;8.20;;
10295;SDS011;5193;51.032;6.356;2024-01-15T06:15:21;15.43;;;8.73;;
10295;SDS011;5193;51.032;6.356;2024-01-15T06:17:51;15.97;;;7.83;;
10295;SDS011;5193;51.032;6.356;2024-01-15T06:20:16;14.07;;;7.50;;
10295;SDS011;5193;51.032;6.356;2024-01-15T06:22:42;12.87;;;7.77;;
10295;SDS011;5193;51.032;6.356;2024-01-15T06:25:08;16.93;;;8.33;;
10295;SDS011;5193;51.032;6.356;2024-01-15T06:27:37;14.67;;;6.13;;
10295;SDS011;5193;51.032;6.356;2024-01-15T06:30:03;13.57;;;7.80;;
10295;SDS011;5193;51.032;6.356;2024-01-15T06:32:34;14.83;;;8.43;;
10295;SDS011;5193;51.032;6.356;2024-01-15T06:34:59;9.90;;;5.37;;
10295;SDS011;5193;51.032;6.356;2024-01-15T06:37:25;15.30;;;6.53;;
10295;SDS011;5193;51.032;6.356;2024-01-15T06:39:51;10.80;;;6.77;;
10295;SDS011;5193;51.032;6.356;2024-01-15T06:42:19;13.50;;;7.03;;
10295;SDS011;5193;51.032;6.356;2024-01-15T06:44:46;10.77;;;6.40;;
10295;SDS011;5193;51.032;6.356;2024-01-15T06:47:12;12.13;;;6.77;;
10295;SDS011;5193;51.032;6.356;2024-01-15T06:49:39;15.57;;;7.10;;
10295;SDS011;5193;51.032;6.356;2024-01-15T06:52:05;17.53;;;9.00;;
10295;SDS011;5193;51.032;6.356;2024-01-15T06:54:32;12.00;;;8.13;;
10295;SDS011;5193;51.032;6.356;2024-01-15T06:56:57;15.13;;;8.83;;
10295;SDS011;5193;51.032;6.356;2024-01-15T06:59:23;13.83;;;6.63;;
10295;SDS011;5193;51.032;6.356;2024-01-15T07:01:53;14.07;;;8.43;;
10295;SDS011;5193;51.032;6.356;2024-01-15T07:04:19;18.07;;;8.47;;
10295;SDS011;5193;51.032;6.356;2024-01-15T07:06:45;17.27;;;9.53;;
10295;SDS011;5193;51.032;6.356;2024-01-15T07:09:13;18.47;;;8.03;;
10295;SDS011;5193;51.032;6.356;2024-01-15T07:11:47;19.27;;;9.17;;
10295;SDS011;5193;51.032;6.356;2024-01-15T07:14:13;16.03;;;7.87;;
10295;SDS011;5193;51.032;6.356;2024-01-15T07:16:39;14.10;;;6.80;;
10295;SDS011;5193;51.032;6.356;2024-01-15T07:19:04;17.10;;;9.30;;
10295;SDS011;5193;51.032;6.356;2024-01-15T07:21:31;18.83;;;9.57;;
10295;SDS011;5193;51.032;6.356;2024-01-15T07:23:57;19.47;;;9.33;;
10295;SDS011;5193;51.032;6.356;2024-01-15T07:26:22;17.03;;;8.03;;
10295;SDS011;5193;51.032;6.356;2024-01-15T07:31:17;17.57;;;8.53;;
10295;SDS011;5193;51.032;6.356;2024-01-15T07:33:43;22.93;;;12.37;;
10295;SDS011;5193;51.032;6.356;2024-01-15T07:36:11;24.37;;;12.40;;
10295;SDS011;5193;51.032;6.356;2024-01-15T07:38:38;25.57;;;11.70;;
10295;SDS011;5193;51.032;6.356;2024-01-15T07:41:04;21.47;;;11.17;;
10295;SDS011;5193;51.032;6.356;2024-01-15T07:43:31;23.30;;;12.30;;
10295;SDS011;5193;51.032;6.356;2024-01-15T07:45:59;20.20;;;8.60;;
10295;SDS011;5193;51.032;6.356;2024-01-15T07:48:25;19.10;;;9.57;;
10295;SDS011;5193;51.032;6.356;2024-01-15T07:51:16;18.43;;;10.23;;
10295;SDS011;5193;51.032;6.356;2024-01-15T07:53:42;17.23;;;9.40;;
10295;SDS011;5193;51.032;6.356;2024-01-15T07:56:08;18.20;;;9.60;;
10295;SDS011;5193;51.032;6.356;2024-01-15T07:58:35;19.07;;;9.60;;
10295;SDS011;5193;51.032;6.356;2024-01-15T08:01:01;10.27;;;5.90;;
10295;SDS011;5193;51.032;6.356;2024-01-15T08:03:26;18.53;;;10.07;;
10295;SDS011;5193;51.032;6.356;2024-01-15T08:05:52;17.30;;;10.40;;
10295;SDS011;5193;51.032;6.356;2024-01-15T08:08:23;16.40;;;8.87;;
10295;SDS011;5193;51.032;6.356;2024-01-15T08:10:55;15.13;;;7.43;;
10295;SDS011;5193;51.032;6.356;2024-01-15T08:13:26;18.33;;;8.53;;
10295;SDS011;5193;51.032;6.356;2024-01-15T08:15:52;18.17;;;10.27;;
10295;SDS011;5193;51.032;6.356;2024-01-15T08:18:18;22.23;;;11.00;;
10295;SDS011;5193;51.032;6.356;2024-01-15T08:20:46;13.50;;;7.90;;
10295;SDS011;5193;51.032;6.356;2024-01-15T08:23:12;16.37;;;9.17;;
10295;SDS011;5193;51.032;6.356;2024-01-15T08:25:39;8.73;;;5.67;;
10295;SDS011;5193;51.032;6.356;2024-01-15T08:28:06;18.77;;;10.03;;
10295;SDS011;5193;51.032;6.356;2024-01-15T08:30:33;18.47;;;8.90;;
10295;SDS011;5193;51.032;6.356;2024-01-15T08:32:59;24.23;;;11.83;;
10295;SDS011;5193;51.032;6.356;2024-01-15T08:35:28;16.77;;;8.70;;
10295;SDS011;5193;51.032;6.356;2024-01-15T08:37:54;12.67;;;5.23;;
10295;SDS011;5193;51.032;6.356;2024-01-15T08:40:20;19.20;;;8.53;;
10295;SDS011;5193;51.032;6.356;2024-01-15T08:42:48;14.50;;;6.57;;
10295;SDS011;5193;51.032;6.356;2024-01-15T08:45:14;12.77;;;7.20;;
10295;SDS011;5193;51.032;6.356;2024-01-15T08:47:40;14.20;;;6.70;;
10295;SDS011;5193;51.032;6.356;2024-01-15T08:50:06;15.27;;;7.67;;
10295;SDS011;5193;51.032;6.356;2024-01-15T08:52:35;12.27;;;7.17;;
10295;SDS011;5193;51.032;6.356;2024-01-15T08:55:01;9.97;;;4.70;;
10295;SDS011;5193;51.032;6.356;2024-01-15T08:57:26;9.93;;;5.27;;
10295;SDS011;5193;51.032;6.356;2024-01-15T08:59:58;11.57;;;7.13;;
10295;SDS011;5193;51.032;6.356;2024-01-15T09:02:24;11.83;;;5.77;;
10295;SDS011;5193;51.032;6.356;2024-01-15T09:04:56;8.50;;;3.47;;
10295;SDS011;5193;51.032;6.356;2024-01-15T09:07:23;10.50;;;5.80;;
10295;SDS011;5193;51.032;6.356;2024-01-15T09:09:50;10.87;;;6.27;;
10295;SDS011;5193;51.032;6.356;2024-01-15T09:12:16;10.60;;;5.87;;
10295;SDS011;5193;51.032;6.356;2024-01-15T09:14:46;11.40;;;5.87;;
10295;SDS011;5193;51.032;6.356;2024-01-15T09:17:15;9.37;;;5.43;;
10295;SDS011;5193;51.032;6.356;2024-01-15T09:19:44;10.43;;;6.07;;
10295;SDS011;5193;51.032;6.356;2024-01-15T09:22:10;5.80;;;3.57;;
10295;SDS011;5193;51.032;6.356;2024-01-15T09:24:44;8.70;;;4.60;;
10295;SDS011;5193;51.032;6.356;2024-01-15T09:27:12;7.83;;;5.17;;
10295;SDS011;5193;51.032;6.356;2024-01-15T09:29:39;8.70;;;3.97;;
10295;SDS011;5193;51.032;6.356;2024-01-15T09:32:07;12.10;;;5.53;;
10295;SDS011;5193;51.032;6.356;2024-01-15T09:34:33;8.13;;;5.03;;
10295;SDS011;5193;51.032;6.356;2024-01-15T09:36:59;4.67;;;3.70;;
10295;SDS011;5193;51.032;6.356;2024-01-15T09:39:28;8.70;;;4.83;;
10295;SDS011;5193;51.032;6.356;2024-01-15T09:41:55;4.57;;;2.87;;
10295;SDS011;5193;51.032;6.356;2024-01-15T09:44:22;6.70;;;3.27;;
10295;SDS011;5193;51.032;6.356;2024-01-15T09:46:48;2.67;;;1.90;;
10295;SDS011;5193;51.032;6.356;2024-01-15T09:49:18;5.23;;;3.33;;
10295;SDS011;5193;51.032;6.356;2024-01-15T09:51:46;3.50;;;2.70;;
10295;SDS011;5193;51.032;6.356;2024-01-15T09:54:12;4.23;;;2.63;;
10295;SDS011;5193;51.032;6.356;2024-01-15T09:56:42;6.37;;;4.47;;
10295;SDS011;5193;51.032;6.356;2024-01-15T09:59:17;3.77;;;2.73;;
10295;SDS011;5193;51.032;6.356;2024-01-15T10:01:44;4.80;;;2.83;;
10295;SDS011;5193;51.032;6.356;2024-01-15T10:04:16;3.67;;;3.20;;
10295;SDS011;5193;51.032;6.356;2024-01-15T10:06:44;7.30;;;2.93;;
10295;SDS011;5193;51.032;6.356;2024-01-15T10:09:14;5.47;;;2.27;;
10295;SDS011;5193;51.032;6.356;2024-01-15T10:11:41;3.43;;;2.30;;
10295;SDS011;5193;51.032;6.356;2024-01-15T10:14:07;3.43;;;2.67;;
10295;SDS011;5193;51.032;6.356;2024-01-15T10:16:33;3.57;;;2.67;;
10295;SDS011;5193;51.032;6.356;2024-01-15T10:18:59;3.43;;;2.00;;
10295;SDS011;5193;51.032;6.356;2024-01-15T10:21:25;4.30;;;2.90;;
10295;SDS011;5193;51.032;6.356;2024-01-15T10:23:53;4.50;;;2.60;;
10295;SDS011;5193;51.032;6.356;2024-01-15T10:26:24;2.53;;;1.67;;
10295;SDS011;5193;51.032;6.356;2024-01-15T10:28:51;3.17;;;2.67;;
10295;SDS011;5193;51.032;6.356;2024-01-15T10:31:37;2.57;;;1.60;;
10295;SDS011;5193;51.032;6.356;2024-01-15T10:34:15;2.77;;;2.17;;
10295;SDS011;5193;51.032;6.356;2024-01-15T10:36:41;2.43;;;1.70;;
10295;SDS011;5193;51.032;6.356;2024-01-15T10:39:10;1.87;;;1.70;;
10295;SDS011;5193;51.032;6.356;2024-01-15T10:41:40;2.00;;;1.70;;
10295;SDS011;5193;51.032;6.356;2024-01-15T10:44:06;1.47;;;0.97;;
10295;SDS011;5193;51.032;6.356;2024-01-15T10:46:31;1.90;;;1.70;;
10295;SDS011;5193;51.032;6.356;2024-01-15T10:48:59;1.53;;;1.30;;
10295;SDS011;5193;51.032;6.356;2024-01-15T10:51:25;3.07;;;1.33;;
10295;SDS011;5193;51.032;6.356;2024-01-15T10:53:51;2.53;;;2.03;;
10295;SDS011;5193;51.032;6.356;2024-01-15T10:56:18;2.87;;;2.57;;
10295;SDS011;5193;51.032;6.356;2024-01-15T10:58:46;2.63;;;1.90;;
10295;SDS011;5193;51.032;6.356;2024-01-15T11:01:12;3.37;;;2.77;;
10295;SDS011;5193;51.032;6.356;2024-01-15T11:03:38;3.47;;;3.17;;
10295;SDS011;5193;51.032;6.356;2024-01-15T11:06:15;3.10;;;2.80;;
10295;SDS011;5193;51.032;6.356;2024-01-15T11:08:50;4.30;;;2.80;;
10295;SDS011;5193;51.032;6.356;2024-01-15T11:11:17;5.80;;;3.20;;
10295;SDS011;5193;51.032;6.356;2024-01-15T11:13:45;4.50;;;3.63;;
10295;SDS011;5193;51.032;6.356;2024-01-15T11:16:14;2.77;;;2.43;;
10295;SDS011;5193;51.032;6.356;2024-01-15T11:18:41;6.53;;;3.97;;
10295;SDS011;5193;51.032;6.356;2024-01-15T11:21:23;5.23;;;3.43;;
10295;SDS011;5193;51.032;6.356;2024-01-15T11:23:54;4.53;;;3.70;;
10295;SDS011;5193;51.032;6.356;2024-01-15T11:26:32;7.43;;;3.97;;
10295;SDS011;5193;51.032;6.356;2024-01-15T11:29:08;6.40;;;2.63;;
10295;SDS011;5193;51.032;6.356;2024-01-15T11:35:09;4.83;;;3.50;;
10295;SDS011;5193;51.032;6.356;2024-01-15T11:37:24;5.43;;;3.27;;
10295;SDS011;5193;51.032;6.356;2024-01-15T11:40:00;3.63;;;1.60;;
10295;SDS011;5193;51.032;6.356;2024-01-15T11:42:32;9.23;;;3.47;;
10295;SDS011;5193;51.032;6.356;2024-01-15T11:44:59;7.97;;;3.53;;
10295;SDS011;5193;51.032;6.356;2024-01-15T11:50:25;8.17;;;4.00;;
10295;SDS011;5193;51.032;6.356;2024-01-15T11:53:00;15.03;;;3.90;;
10295;SDS011;5193;51.032;6.356;2024-01-15T11:55:33;9.20;;;3.47;;
10295;SDS011;5193;51.032;6.356;2024-01-15T11:58:01;6.77;;;3.80;;
10295;SDS011;5193;51.032;6.356;2024-01-15T12:00:28;8.03;;;3.17;;
10295;SDS011;5193;51.032;6.356;2024-01-15T12:02:54;7.70;;;3.37;;
10295;SDS011;5193;51.032;6.356;2024-01-15T12:05:22;9.43;;;3.93;;
10295;SDS011;5193;51.032;6.356;2024-01-15T12:07:51;6.37;;;3.07;;
10295;SDS011;5193;51.032;6.356;2024-01-15T12:10:17;14.20;;;3.07;;
10295;SDS011;5193;51.032;6.356;2024-01-15T12:15:30;13.43;;;4.13;;
10295;SDS011;5193;51.032;6.356;2024-01-15T12:17:57;6.73;;;3.40;;
10295;SDS011;5193;51.032;6.356;2024-01-15T12:20:27;5.70;;;2.57;;
10295;SDS011;5193;51.032;6.356;2024-01-15T12:22:54;8.00;;;3.00;;
10295;SDS011;5193;51.032;6.356;2024-01-15T12:25:20;4.57;;;2.03;;
10295;SDS011;5193;51.032;6.356;2024-01-15T12:27:53;6.00;;;2.50;;
10295;SDS011;5193;51.032;6.356;2024-01-15T12:30:20;7.07;;;2.87;;
10295;SDS011;5193;51.032;6.356;2024-01-15T12:32:46;4.80;;;2.60;;
10295;SDS011;5193;51.032;6.356;2024-01-15T12:35:12;6.03;;;3.10;;
10295;SDS011;5193;51.032;6.356;2024-01-15T12:37:40;7.97;;;2.60;;
10295;SDS011;5193;51.032;6.356;2024-01-15T12:40:08;7.87;;;3.40;;
10295;SDS011;5193;51.032;6.356;2024-01-15T12:42:41;3.93;;;2.80;;
10295;SDS011;5193;51.032;6.356;2024-01-15T12:45:09;5.30;;;2.97;;
10295;SDS011;5193;51.032;6.356;2024-01-15T12:47:37;3.73;;;1.93;;
10295;SDS011;5193;51.032;6.356;2024-01-15T12:50:14;2.87;;;1.90;;
10295;SDS011;5193;51.032;6.356;2024-01-15T12:52:43;3.47;;;2.13;;
10295;SDS011;5193;51.032;6.356;2024-01-15T12:55:09;3.17;;;2.50;;
10295;SDS011;5193;51.032;6.356;2024-01-15T12:57:35;5.60;;;2.30;;
10295;SDS011;5193;51.032;6.356;2024-01-15T13:00:05;7.07;;;2.40;;
10295;SDS011;5193;51.032;6.356;2024-01-15T13:02:38;7.07;;;2.17;;
10295;SDS011;5193;51.032;6.356;2024-01-15T13:05:05;2.53;;;1.77;;
10295;SDS011;5193;51.032;6.356;2024-01-15T13:07:33;3.27;;;1.77;;
10295;SDS011;5193;51.032;6.356;2024-01-15T13:10:05;4.80;;;2.30;;
10295;SDS011;5193;51.032;6.356;2024-01-15T13:12:33;3.40;;;2.03;;
10295;SDS011;5193;51.032;6.356;2024-01-15T13:14:58;3.57;;;1.53;;
10295;SDS011;5193;51.032;6.356;2024-01-15T13:17:24;4.47;;;1.30;;
10295;SDS011;5193;51.032;6.356;2024-01-15T13:19:53;2.87;;;1.33;;
10295;SDS011;5193;51.032;6.356;2024-01-15T13:22:18;3.43;;;1.70;;
10295;SDS011;5193;51.032;6.356;2024-01-15T13:24:45;2.37;;;1.37;;
10295;SDS011;5193;51.032;6.356;2024-01-15T13:27:11;3.30;;;1.33;;
10295;SDS011;5193;51.032;6.356;2024-01-15T13:29:38;2.47;;;1.27;;
10295;SDS011;5193;51.032;6.356;2024-01-15T13:32:03;4.53;;;1.70;;
10295;SDS011;5193;51.032;6.356;2024-01-15T13:34:30;3.43;;;1.43;;
10295;SDS011;5193;51.032;6.356;2024-01-15T13:36:55;2.17;;;1.00;;
10295;SDS011;5193;51.032;6.356;2024-01-15T13:39:22;2.53;;;1.10;;
10295;SDS011;5193;51.032;6.356;2024-01-15T13:41:48;1.40;;;1.23;;
10295;SDS011;5193;51.032;6.356;2024-01-15T13:44:14;6.63;;;1.37;;
10295;SDS011;5193;51.032;6.356;2024-01-15T13:46:40;1.00;;;0.83;;
10295;SDS011;5193;51.032;6.356;2024-01-15T13:49:07;3.50;;;1.40;;
10295;SDS011;5193;51.032;6.356;2024-01-15T13:51:34;1.80;;;1.50;;
10295;SDS011;5193;51.032;6.356;2024-01-15T13:54:00;1.63;;;1.30;;
10295;SDS011;5193;51.032;6.356;2024-01-15T13:56:29;3.53;;;1.40;;
10295;SDS011;5193;51.032;6.356;2024-01-15T13:58:57;1.33;;;1.07;;
10295;SDS011;5193;51.032;6.356;2024-01-15T14:01:25;1.90;;;1.27;;
10295;SDS011;5193;51.032;6.356;2024-01-15T14:03:51;4.83;;;1.13;;
10295;SDS011;5193;51.032;6.356;2024-01-15T14:06:20;1.43;;;1.10;;
10295;SDS011;5193;51.032;6.356;2024-01-15T14:08:47;1.87;;;1.70;;
10295;SDS011;5193;51.032;6.356;2024-01-15T14:11:13;2.47;;;1.27;;
10295;SDS011;5193;51.032;6.356;2024-01-15T14:13:38;1.10;;;1.00;;
10295;SDS011;5193;51.032;6.356;2024-01-15T14:16:04;4.10;;;1.70;;
10295;SDS011;5193;51.032;6.356;2024-01-15T14:18:30;2.63;;;1.47;;
10295;SDS011;5193;51.032;6.356;2024-01-15T14:20:58;1.20;;;1.10;;
10295;SDS011;5193;51.032;6.356;2024-01-15T14:23:27;3.57;;;1.33;;
10295;SDS011;5193;51.032;6.356;2024-01-15T14:25:56;3.67;;;1.37;;
10295;SDS011;5193;51.032;6.356;2024-01-15T14:28:24;0.73;;;0.63;;
10295;SDS011;5193;51.032;6.356;2024-01-15T14:30:50;2.17;;;1.40;;
10295;SDS011;5193;51.032;6.356;2024-01-15T14:33:17;3.07;;;1.53;;
10295;SDS011;5193;51.032;6.356;2024-01-15T14:35:43;1.30;;;1.13;;
10295;SDS011;5193;51.032;6.356;2024-01-15T14:38:09;3.43;;;1.67;;
10295;SDS011;5193;51.032;6.356;2024-01-15T14:40:34;1.23;;;1.00;;
10295;SDS011;5193;51.032;6.356;2024-01-15T14:43:05;1.73;;;1.43;;
10295;SDS011;5193;51.032;6.356;2024-01-15T14:45:34;1.37;;;1.20;;
10295;SDS011;5193;51.032;6.356;2024-01-15T14:48:02;1.40;;;1.30;;
10295;SDS011;5193;51.032;6.356;2024-01-15T14:50:28;4.90;;;1.60;;
10295;SDS011;5193;51.032;6.356;2024-01-15T14:52:54;3.50;;;2.30;;
10295;SDS011;5193;51.032;6.356;2024-01-15T14:55:20;1.70;;;1.23;;
10295;SDS011;5193;51.032;6.356;2024-01-15T14:57:48;1.40;;;1.30;;
10295;SDS011;5193;51.032;6.356;2024-01-15T15:00:20;2.83;;;1.43;;
10295;SDS011;5193;51.032;6.356;2024-01-15T15:02:46;2.00;;;1.33;;
10295;SDS011;5193;51.032;6.356;2024-01-15T15:05:13;1.47;;;1.37;;